sensor_id;sensor_type;location;lat;lon;timestamp;P1;durP1;ratioP1;P2;durP2;ratioP2
14688;SDS011;7432;48.728;9.154;2024-02-28T00:01:48;22.63;;;20.00;;
14688;SDS011;7432;48.728;9.154;2024-02-28T00:04:16;23.37;;;20.13;;
14688;SDS011;7432;48.728;9.154;2024-02-28T00:06:43;21.80;;;19.50;;
14688;SDS011;7432;48.728;9.154;2024-02-28T00:09:11;22.30;;;19.90;;
14688;SDS011;7432;48.728;9.154;2024-02-28T00:11:40;22.23;;;19.97;;
14688;SDS011;7432;48.728;9.154;2024-02-28T00:14:08;22.93;;;20.53;;
14688;SDS011;7432;48.728;9.154;2024-02-28T00:16:34;23.33;;;20.83;;
14688;SDS011;7432;48.728;9.154;2024-02-28T00:19:01;22.67;;;20.23;;
14688;SDS011;7432;48.728;9.154;2024-02-28T00:21:28;22.90;;;20.50;;
14688;SDS011;7432;48.728;9.154;2024-02-28T00:23:55;23.53;;;21.07;;
14688;SDS011;7432;48.728;9.154;2024-02-28T00:26:21;21.40;;;19.20;;
14688;SDS011;7432;48.728;9.154;2024-02-28T00:28:47;23.63;;;20.40;;
14688;SDS011;7432;48.728;9.154;2024-02-28T00:31:14;23.07;;;20.57;;
14688;SDS011;7432;48.728;9.154;2024-02-28T00:33:40;23.13;;;20.73;;
14688;SDS011;7432;48.728;9.154;2024-02-28T00:36:06;21.73;;;19.43;;
14688;SDS011;7432;48.728;9.154;2024-02-28T00:38:34;23.67;;;20.73;;
14688;SDS011;7432;48.728;9.154;2024-02-28T00:41:01;23.37;;;20.97;;
14688;SDS011;7432;48.728;9.154;2024-02-28T00:43:27;22.67;;;20.03;;
14688;SDS011;7432;48.728;9.154;2024-02-28T00:45:53;24.60;;;20.77;;
14688;SDS011;7432;48.728;9.154;2024-02-28T00:48:20;21.70;;;19.40;;
14688;SDS011;7432;48.728;9.154;2024-02-28T00:50:47;22.87;;;20.53;;
14688;SDS011;7432;48.728;9.154;2024-02-28T00:53:13;21.30;;;19.10;;
14688;SDS011;7432;48.728;9.154;2024-02-28T00:55:41;28.20;;;23.37;;
14688;SDS011;7432;48.728;9.154;2024-02-28T00:58:07;56.20;;;35.30;;
14688;SDS011;7432;48.728;9.154;2024-02-28T01:00:33;38.73;;;28.43;;
14688;SDS011;7432;48.728;9.154;2024-02-28T01:03:00;31.57;;;24.93;;
14688;SDS011;7432;48.728;9.154;2024-02-28T01:05:28;23.47;;;21.03;;
14688;SDS011;7432;48.728;9.154;2024-02-28T01:07:55;39.20;;;28.57;;
14688;SDS011;7432;48.728;9.154;2024-02-28T01:10:21;41.67;;;28.87;;
14688;SDS011;7432;48.728;9.154;2024-02-28T01:12:49;31.50;;;24.97;;
14688;SDS011;7432;48.728;9.154;2024-02-28T01:15:16;39.07;;;29.47;;
14688;SDS011;7432;48.728;9.154;2024-02-28T01:17:42;29.27;;;23.67;;
14688;SDS011;7432;48.728;9.154;2024-02-28T01:20:09;26.30;;;22.90;;
14688;SDS011;7432;48.728;9.154;2024-02-28T01:22:36;33.13;;;25.20;;
14688;SDS011;7432;48.728;9.154;2024-02-28T01:25:02;31.73;;;25.57;;
14688;SDS011;7432;48.728;9.154;2024-02-28T01:27:29;27.17;;;22.47;;
14688;SDS011;7432;48.728;9.154;2024-02-28T01:29:57;26.50;;;22.30;;
14688;SDS011;7432;48.728;9.154;2024-02-28T01:32:24;24.83;;;21.17;;
14688;SDS011;7432;48.728;9.154;2024-02-28T01:34:50;24.80;;;21.90;;
14688;SDS011;7432;48.728;9.154;2024-02-28T01:37:17;23.17;;;20.67;;
14688;SDS011;7432;48.728;9.154;2024-02-28T01:39:43;24.03;;;21.43;;
14688;SDS011;7432;48.728;9.154;2024-02-28T01:42:09;23.80;;;21.27;;
14688;SDS011;7432;48.728;9.154;2024-02-28T01:44:37;23.77;;;20.93;;
14688;SDS011;7432;48.728;9.154;2024-02-28T01:47:08;23.87;;;21.10;;
14688;SDS011;7432;48.728;9.154;2024-02-28T01:49:35;23.97;;;20.73;;
14688;SDS011;7432;48.728;9.154;2024-02-28T01:52:01;25.40;;;22.40;;
14688;SDS011;7432;48.728;9.154;2024-02-28T01:54:28;27.10;;;22.63;;
14688;SDS011;7432;48.728;9.154;2024-02-28T01:56:55;26.07;;;22.50;;
14688;SDS011;7432;48.728;9.154;2024-02-28T01:59:22;25.53;;;21.57;;
14688;SDS011;7432;48.728;9.154;2024-02-28T02:01:50;24.17;;;21.57;;
14688;SDS011;7432;48.728;9.154;2024-02-28T02:04:18;24.83;;;21.67;;
14688;SDS011;7432;48.728;9.154;2024-02-28T02:06:44;24.17;;;21.57;;
14688;SDS011;7432;48.728;9.154;2024-02-28T02:09:12;26.03;;;21.67;;
14688;SDS011;7432;48.728;9.154;2024-02-28T02:11:38;27.20;;;21.80;;
14688;SDS011;7432;48.728;9.154;2024-02-28T02:14:05;25.57;;;21.20;;
14688;SDS011;7432;48.728;9.154;2024-02-28T02:16:31;26.30;;;22.17;;
14688;SDS011;7432;48.728;9.154;2024-02-28T02:18:58;25.20;;;20.60;;
14688;SDS011;7432;48.728;9.154;2024-02-28T02:21:26;25.37;;;21.30;;
14688;SDS011;7432;48.728;9.154;2024-02-28T02:23:57;25.70;;;22.27;;
14688;SDS011;7432;48.728;9.154;2024-02-28T02:26:24;24.87;;;21.73;;
14688;SDS011;7432;48.728;9.154;2024-02-28T02:28:50;24.60;;;21.60;;
14688;SDS011;7432;48.728;9.154;2024-02-28T02:31:17;24.40;;;21.03;;
14688;SDS011;7432;48.728;9.154;2024-02-28T02:33:43;25.93;;;21.53;;
14688;SDS011;7432;48.728;9.154;2024-02-28T02:36:10;24.57;;;21.87;;
14688;SDS011;7432;48.728;9.154;2024-02-28T02:38:36;24.57;;;21.83;;
14688;SDS011;7432;48.728;9.154;2024-02-28T02:41:04;24.30;;;21.80;;
14688;SDS011;7432;48.728;9.154;2024-02-28T02:43:30;24.93;;;21.00;;
14688;SDS011;7432;48.728;9.154;2024-02-28T02:45:56;24.17;;;21.57;;
14688;SDS011;7432;48.728;9.154;2024-02-28T02:48:23;24.57;;;20.40;;
14688;SDS011;7432;48.728;9.154;2024-02-28T02:50:49;25.07;;;21.83;;
14688;SDS011;7432;48.728;9.154;2024-02-28T02:53:16;23.93;;;21.13;;
14688;SDS011;7432;48.728;9.154;2024-02-28T02:55:42;23.67;;;21.23;;
14688;SDS011;7432;48.728;9.154;2024-02-28T02:58:10;24.37;;;21.03;;
14688;SDS011;7432;48.728;9.154;2024-02-28T03:00:36;24.27;;;21.30;;
14688;SDS011;7432;48.728;9.154;2024-02-28T03:03:03;25.83;;;21.33;;
14688;SDS011;7432;48.728;9.154;2024-02-28T03:05:30;25.10;;;22.07;;
14688;SDS011;7432;48.728;9.154;2024-02-28T03:07:56;24.43;;;21.47;;
14688;SDS011;7432;48.728;9.154;2024-02-28T03:10:23;25.43;;;22.60;;
14688;SDS011;7432;48.728;9.154;2024-02-28T03:12:49;35.20;;;26.37;;
14688;SDS011;7432;48.728;9.154;2024-02-28T03:15:17;46.63;;;31.17;;
14688;SDS011;7432;48.728;9.154;2024-02-28T03:17:43;52.90;;;32.33;;
14688;SDS011;7432;48.728;9.154;2024-02-28T03:20:10;48.43;;;31.33;;
14688;SDS011;7432;48.728;9.154;2024-02-28T03:22:38;29.17;;;23.00;;
14688;SDS011;7432;48.728;9.154;2024-02-28T03:25:05;32.03;;;23.97;;
14688;SDS011;7432;48.728;9.154;2024-02-28T03:27:32;43.53;;;27.33;;
14688;SDS011;7432;48.728;9.154;2024-02-28T03:29:58;36.23;;;25.73;;
14688;SDS011;7432;48.728;9.154;2024-02-28T03:32:26;33.40;;;26.23;;
14688;SDS011;7432;48.728;9.154;2024-02-28T03:34:52;37.70;;;25.27;;
14688;SDS011;7432;48.728;9.154;2024-02-28T03:37:19;38.73;;;25.50;;
14688;SDS011;7432;48.728;9.154;2024-02-28T03:39:45;28.03;;;22.57;;
14688;SDS011;7432;48.728;9.154;2024-02-28T03:42:12;45.87;;;32.10;;
14688;SDS011;7432;48.728;9.154;2024-02-28T03:44:38;32.53;;;26.00;;
14688;SDS011;7432;48.728;9.154;2024-02-28T03:47:04;28.37;;;24.03;;
14688;SDS011;7432;48.728;9.154;2024-02-28T03:49:32;26.63;;;21.53;;
14688;SDS011;7432;48.728;9.154;2024-02-28T03:51:59;24.57;;;21.87;;
14688;SDS011;7432;48.728;9.154;2024-02-28T03:54:26;23.97;;;21.40;;
14688;SDS011;7432;48.728;9.154;2024-02-28T03:56:52;26.97;;;21.73;;
14688;SDS011;7432;48.728;9.154;2024-02-28T03:59:19;26.07;;;22.17;;
14688;SDS011;7432;48.728;9.154;2024-02-28T04:01:45;24.63;;;21.77;;
14688;SDS011;7432;48.728;9.154;2024-02-28T04:04:12;23.90;;;21.33;;
14688;SDS011;7432;48.728;9.154;2024-02-28T04:06:39;26.27;;;21.93;;
14688;SDS011;7432;48.728;9.154;2024-02-28T04:09:06;24.10;;;21.57;;
14688;SDS011;7432;48.728;9.154;2024-02-28T04:11:32;25.97;;;21.23;;
14688;SDS011;7432;48.728;9.154;2024-02-28T04:13:59;24.77;;;21.03;;
14688;SDS011;7432;48.728;9.154;2024-02-28T04:16:25;23.77;;;21.20;;
14688;SDS011;7432;48.728;9.154;2024-02-28T04:18:51;25.20;;;21.60;;
14688;SDS011;7432;48.728;9.154;2024-02-28T04:21:18;26.13;;;23.07;;
14688;SDS011;7432;48.728;9.154;2024-02-28T04:23:45;24.90;;;21.93;;
14688;SDS011;7432;48.728;9.154;2024-02-28T04:26:12;24.83;;;21.10;;
14688;SDS011;7432;48.728;9.154;2024-02-28T04:28:38;27.60;;;22.10;;
14688;SDS011;7432;48.728;9.154;2024-02-28T04:31:04;24.93;;;22.23;;
14688;SDS011;7432;48.728;9.154;2024-02-28T04:33:32;24.63;;;21.77;;
14688;SDS011;7432;48.728;9.154;2024-02-28T04:35:58;27.73;;;22.73;;
14688;SDS011;7432;48.728;9.154;2024-02-28T04:38:24;26.03;;;22.60;;
14688;SDS011;7432;48.728;9.154;2024-02-28T04:40:52;25.57;;;21.50;;
14688;SDS011;7432;48.728;9.154;2024-02-28T04:43:18;23.67;;;21.13;;
14688;SDS011;7432;48.728;9.154;2024-02-28T04:45:45;25.80;;;22.40;;
14688;SDS011;7432;48.728;9.154;2024-02-28T04:48:11;23.87;;;21.13;;
14688;SDS011;7432;48.728;9.154;2024-02-28T04:50:37;25.10;;;21.07;;
14688;SDS011;7432;48.728;9.154;2024-02-28T04:53:04;25.00;;;22.07;;
14688;SDS011;7432;48.728;9.154;2024-02-28T04:55:30;22.87;;;20.30;;
14688;SDS011;7432;48.728;9.154;2024-02-28T04:57:58;23.83;;;20.77;;
14688;SDS011;7432;48.728;9.154;2024-02-28T05:00:24;22.80;;;19.83;;
14688;SDS011;7432;48.728;9.154;2024-02-28T05:02:50;23.20;;;20.70;;
14688;SDS011;7432;48.728;9.154;2024-02-28T05:05:17;24.17;;;21.57;;
14688;SDS011;7432;48.728;9.154;2024-02-28T05:07:43;24.60;;;20.73;;
14688;SDS011;7432;48.728;9.154;2024-02-28T05:10:10;24.97;;;20.93;;
14688;SDS011;7432;48.728;9.154;2024-02-28T05:12:36;22.43;;;20.13;;
14688;SDS011;7432;48.728;9.154;2024-02-28T05:15:04;23.33;;;20.83;;
14688;SDS011;7432;48.728;9.154;2024-02-28T05:17:31;24.77;;;21.30;;
14688;SDS011;7432;48.728;9.154;2024-02-28T05:19:58;23.83;;;20.93;;
14688;SDS011;7432;48.728;9.154;2024-02-28T05:22:24;23.73;;;20.17;;
14688;SDS011;7432;48.728;9.154;2024-02-28T05:24:51;23.27;;;20.03;;
14688;SDS011;7432;48.728;9.154;2024-02-28T05:27:17;23.87;;;21.33;;
14688;SDS011;7432;48.728;9.154;2024-02-28T05:29:43;24.30;;;21.70;;
14688;SDS011;7432;48.728;9.154;2024-02-28T05:32:11;24.27;;;21.47;;
14688;SDS011;7432;48.728;9.154;2024-02-28T05:34:37;24.07;;;21.53;;
14688;SDS011;7432;48.728;9.154;2024-02-28T05:37:04;22.87;;;20.20;;
14688;SDS011;7432;48.728;9.154;2024-02-28T05:39:30;24.97;;;20.93;;
14688;SDS011;7432;48.728;9.154;2024-02-28T05:41:57;23.13;;;20.70;;
14688;SDS011;7432;48.728;9.154;2024-02-28T05:44:23;23.70;;;20.53;;
14688;SDS011;7432;48.728;9.154;2024-02-28T05:46:50;24.27;;;21.20;;
14688;SDS011;7432;48.728;9.154;2024-02-28T05:49:18;23.80;;;21.17;;
14688;SDS011;7432;48.728;9.154;2024-02-28T05:51:44;24.27;;;20.83;;
14688;SDS011;7432;48.728;9.154;2024-02-28T05:54:11;24.10;;;21.50;;
14688;SDS011;7432;48.728;9.154;2024-02-28T05:56:38;24.33;;;20.53;;
14688;SDS011;7432;48.728;9.154;2024-02-28T05:59:04;22.50;;;20.20;;
14688;SDS011;7432;48.728;9.154;2024-02-28T06:01:31;23.00;;;20.43;;
14688;SDS011;7432;48.728;9.154;2024-02-28T06:03:57;22.57;;;20.17;;
14688;SDS011;7432;48.728;9.154;2024-02-28T06:06:25;24.47;;;21.90;;
14688;SDS011;7432;48.728;9.154;2024-02-28T06:08:51;24.57;;;21.90;;
14688;SDS011;7432;48.728;9.154;2024-02-28T06:11:18;25.07;;;22.37;;
14688;SDS011;7432;48.728;9.154;2024-02-28T06:13:44;24.73;;;21.57;;
14688;SDS011;7432;48.728;9.154;2024-02-28T06:16:13;25.17;;;22.27;;
14688;SDS011;7432;48.728;9.154;2024-02-28T06:18:40;23.87;;;21.37;;
14688;SDS011;7432;48.728;9.154;2024-02-28T06:21:06;24.57;;;21.80;;
14688;SDS011;7432;48.728;9.154;2024-02-28T06:23:34;25.37;;;20.97;;
14688;SDS011;7432;48.728;9.154;2024-02-28T06:26:00;24.33;;;21.30;;
14688;SDS011;7432;48.728;9.154;2024-02-28T06:28:27;24.67;;;21.50;;
14688;SDS011;7432;48.728;9.154;2024-02-28T06:30:53;25.10;;;21.70;;
14688;SDS011;7432;48.728;9.154;2024-02-28T06:33:19;26.20;;;22.23;;
14688;SDS011;7432;48.728;9.154;2024-02-28T06:35:46;24.23;;;21.70;;
14688;SDS011;7432;48.728;9.154;2024-02-28T06:38:12;25.43;;;22.73;;
14688;SDS011;7432;48.728;9.154;2024-02-28T06:40:40;25.07;;;21.47;;
14688;SDS011;7432;48.728;9.154;2024-02-28T06:43:06;26.20;;;21.97;;
14688;SDS011;7432;48.728;9.154;2024-02-28T06:45:33;24.33;;;21.63;;
14688;SDS011;7432;48.728;9.154;2024-02-28T06:47:58;26.33;;;23.00;;
14688;SDS011;7432;48.728;9.154;2024-02-28T06:50:25;24.70;;;22.00;;
14688;SDS011;7432;48.728;9.154;2024-02-28T06:52:51;24.10;;;21.57;;
14688;SDS011;7432;48.728;9.154;2024-02-28T06:55:18;24.27;;;21.43;;
14688;SDS011;7432;48.728;9.154;2024-02-28T06:57:46;25.17;;;21.77;;
14688;SDS011;7432;48.728;9.154;2024-02-28T07:00:12;23.87;;;21.47;;
14688;SDS011;7432;48.728;9.154;2024-02-28T07:02:39;27.23;;;23.07;;
14688;SDS011;7432;48.728;9.154;2024-02-28T07:05:06;24.57;;;21.87;;
14688;SDS011;7432;48.728;9.154;2024-02-28T07:07:33;25.50;;;21.93;;
14688;SDS011;7432;48.728;9.154;2024-02-28T07:10:02;27.23;;;23.13;;
14688;SDS011;7432;48.728;9.154;2024-02-28T07:12:29;25.13;;;20.93;;
14688;SDS011;7432;48.728;9.154;2024-02-28T07:14:57;24.93;;;22.33;;
14688;SDS011;7432;48.728;9.154;2024-02-28T07:17:23;23.87;;;21.23;;
14688;SDS011;7432;48.728;9.154;2024-02-28T07:19:49;25.37;;;22.37;;
14688;SDS011;7432;48.728;9.154;2024-02-28T07:22:16;24.07;;;21.47;;
14688;SDS011;7432;48.728;9.154;2024-02-28T07:24:43;25.47;;;22.40;;
14688;SDS011;7432;48.728;9.154;2024-02-28T07:27:09;25.70;;;22.37;;
14688;SDS011;7432;48.728;9.154;2024-02-28T07:29:36;23.17;;;20.80;;
14688;SDS011;7432;48.728;9.154;2024-02-28T07:32:04;24.93;;;22.20;;
14688;SDS011;7432;48.728;9.154;2024-02-28T07:34:30;26.80;;;22.57;;
14688;SDS011;7432;48.728;9.154;2024-02-28T07:36:57;24.50;;;21.70;;
14688;SDS011;7432;48.728;9.154;2024-02-28T07:39:23;24.70;;;22.07;;
14688;SDS011;7432;48.728;9.154;2024-02-28T07:41:49;24.90;;;21.47;;
14688;SDS011;7432;48.728;9.154;2024-02-28T07:44:16;23.73;;;21.23;;
14688;SDS011;7432;48.728;9.154;2024-02-28T07:46:43;25.30;;;22.70;;
14688;SDS011;7432;48.728;9.154;2024-02-28T07:49:11;26.53;;;21.63;;
14688;SDS011;7432;48.728;9.154;2024-02-28T07:51:38;23.33;;;20.83;;
14688;SDS011;7432;48.728;9.154;2024-02-28T07:54:05;24.47;;;21.70;;
14688;SDS011;7432;48.728;9.154;2024-02-28T07:56:32;45.37;;;35.07;;
14688;SDS011;7432;48.728;9.154;2024-02-28T07:58:58;30.57;;;27.07;;
14688;SDS011;7432;48.728;9.154;2024-02-28T08:01:24;28.57;;;25.03;;
14688;SDS011;7432;48.728;9.154;2024-02-28T08:03:51;26.80;;;23.90;;
14688;SDS011;7432;48.728;9.154;2024-02-28T08:06:18;23.97;;;21.60;;
14688;SDS011;7432;48.728;9.154;2024-02-28T08:08:45;23.17;;;19.73;;
14688;SDS011;7432;48.728;9.154;2024-02-28T08:11:11;23.43;;;21.10;;
14688;SDS011;7432;48.728;9.154;2024-02-28T08:13:38;24.80;;;22.33;;
14688;SDS011;7432;48.728;9.154;2024-02-28T08:16:04;24.23;;;21.63;;
14688;SDS011;7432;48.728;9.154;2024-02-28T08:18:33;23.13;;;20.50;;
14688;SDS011;7432;48.728;9.154;2024-02-28T08:21:00;23.20;;;20.60;;
14688;SDS011;7432;48.728;9.154;2024-02-28T08:23:29;23.60;;;21.20;;
14688;SDS011;7432;48.728;9.154;2024-02-28T08:25:55;22.53;;;20.10;;
14688;SDS011;7432;48.728;9.154;2024-02-28T08:28:21;22.83;;;20.53;;
14688;SDS011;7432;48.728;9.154;2024-02-28T08:30:48;23.33;;;20.93;;
14688;SDS011;7432;48.728;9.154;2024-02-28T08:33:16;23.77;;;21.37;;
14688;SDS011;7432;48.728;9.154;2024-02-28T08:35:42;25.90;;;22.77;;
14688;SDS011;7432;48.728;9.154;2024-02-28T08:38:08;25.20;;;20.70;;
14688;SDS011;7432;48.728;9.154;2024-02-28T08:40:37;24.60;;;22.00;;
14688;SDS011;7432;48.728;9.154;2024-02-28T08:43:03;24.53;;;21.93;;
14688;SDS011;7432;48.728;9.154;2024-02-28T08:45:30;23.93;;;21.53;;
14688;SDS011;7432;48.728;9.154;2024-02-28T08:47:56;23.97;;;21.43;;
14688;SDS011;7432;48.728;9.154;2024-02-28T08:50:26;24.73;;;22.10;;
14688;SDS011;7432;48.728;9.154;2024-02-28T08:52:52;24.10;;;21.60;;
14688;SDS011;7432;48.728;9.154;2024-02-28T08:55:19;24.97;;;22.03;;
14688;SDS011;7432;48.728;9.154;2024-02-28T08:57:48;24.70;;;22.10;;
14688;SDS011;7432;48.728;9.154;2024-02-28T09:00:14;26.30;;;22.73;;
14688;SDS011;7432;48.728;9.154;2024-02-28T09:02:42;26.93;;;22.77;;
14688;SDS011;7432;48.728;9.154;2024-02-28T09:05:09;27.93;;;22.93;;
14688;SDS011;7432;48.728;9.154;2024-02-28T09:07:35;26.90;;;23.30;;
14688;SDS011;7432;48.728;9.154;2024-02-28T09:10:03;27.87;;;24.83;;
14688;SDS011;7432;48.728;9.154;2024-02-28T09:12:29;28.40;;;23.80;;
14688;SDS011;7432;48.728;9.154;2024-02-28T09:14:57;29.70;;;24.53;;
14688;SDS011;7432;48.728;9.154;2024-02-28T09:17:23;28.63;;;23.27;;
14688;SDS011;7432;48.728;9.154;2024-02-28T09:19:50;26.00;;;23.20;;
14688;SDS011;7432;48.728;9.154;2024-02-28T09:22:17;28.83;;;24.27;;
14688;SDS011;7432;48.728;9.154;2024-02-28T09:24:46;26.90;;;22.90;;
14688;SDS011;7432;48.728;9.154;2024-02-28T09:27:12;26.80;;;23.90;;
14688;SDS011;7432;48.728;9.154;2024-02-28T09:29:39;31.87;;;24.23;;
14688;SDS011;7432;48.728;9.154;2024-02-28T09:32:07;28.47;;;24.47;;
14688;SDS011;7432;48.728;9.154;2024-02-28T09:34:33;28.80;;;24.00;;
14688;SDS011;7432;48.728;9.154;2024-02-28T09:37:00;29.50;;;25.13;;
14688;SDS011;7432;48.728;9.154;2024-02-28T09:39:26;27.07;;;23.47;;
14688;SDS011;7432;48.728;9.154;2024-02-28T09:41:53;26.37;;;23.40;;
14688;SDS011;7432;48.728;9.154;2024-02-28T09:44:19;26.27;;;22.83;;
14688;SDS011;7432;48.728;9.154;2024-02-28T09:46:48;25.23;;;22.17;;
14688;SDS011;7432;48.728;9.154;2024-02-28T09:49:18;23.70;;;21.17;;
14688;SDS011;7432;48.728;9.154;2024-02-28T09:51:44;27.30;;;22.07;;
14688;SDS011;7432;48.728;9.154;2024-02-28T09:54:15;25.10;;;22.40;;
14688;SDS011;7432;48.728;9.154;2024-02-28T09:56:42;24.73;;;22.03;;
14688;SDS011;7432;48.728;9.154;2024-02-28T09:59:08;25.53;;;22.83;;
14688;SDS011;7432;48.728;9.154;2024-02-28T10:01:40;29.87;;;22.03;;
14688;SDS011;7432;48.728;9.154;2024-02-28T10:04:09;24.10;;;21.30;;
14688;SDS011;7432;48.728;9.154;2024-02-28T10:06:39;24.30;;;21.53;;
14688;SDS011;7432;48.728;9.154;2024-02-28T10:09:05;24.50;;;21.93;;
14688;SDS011;7432;48.728;9.154;2024-02-28T10:11:32;22.73;;;20.27;;
14688;SDS011;7432;48.728;9.154;2024-02-28T10:14:00;23.07;;;20.67;;
14688;SDS011;7432;48.728;9.154;2024-02-28T10:16:27;24.07;;;21.47;;
14688;SDS011;7432;48.728;9.154;2024-02-28T10:18:53;23.30;;;20.57;;
14688;SDS011;7432;48.728;9.154;2024-02-28T10:21:20;23.60;;;21.07;;
14688;SDS011;7432;48.728;9.154;2024-02-28T10:23:47;24.10;;;21.50;;
14688;SDS011;7432;48.728;9.154;2024-02-28T10:26:15;23.10;;;20.60;;
14688;SDS011;7432;48.728;9.154;2024-02-28T10:28:42;23.53;;;20.93;;
14688;SDS011;7432;48.728;9.154;2024-02-28T10:31:09;24.77;;;21.90;;
14688;SDS011;7432;48.728;9.154;2024-02-28T10:33:35;26.37;;;22.77;;
14688;SDS011;7432;48.728;9.154;2024-02-28T10:36:02;22.50;;;20.20;;
14688;SDS011;7432;48.728;9.154;2024-02-28T10:38:30;23.07;;;20.67;;
14688;SDS011;7432;48.728;9.154;2024-02-28T10:40:59;24.17;;;21.67;;
14688;SDS011;7432;48.728;9.154;2024-02-28T10:43:26;25.07;;;22.37;;
14688;SDS011;7432;48.728;9.154;2024-02-28T10:45:54;22.83;;;20.40;;
14688;SDS011;7432;48.728;9.154;2024-02-28T10:48:23;22.07;;;19.57;;
14688;SDS011;7432;48.728;9.154;2024-02-28T10:50:50;24.67;;;21.97;;
14688;SDS011;7432;48.728;9.154;2024-02-28T10:53:20;24.70;;;22.20;;
14688;SDS011;7432;48.728;9.154;2024-02-28T10:55:48;23.10;;;20.80;;
14688;SDS011;7432;48.728;9.154;2024-02-28T10:58:16;23.43;;;20.93;;
14688;SDS011;7432;48.728;9.154;2024-02-28T11:00:45;23.57;;;21.03;;
14688;SDS011;7432;48.728;9.154;2024-02-28T11:03:12;23.47;;;20.50;;
14688;SDS011;7432;48.728;9.154;2024-02-28T11:05:41;24.63;;;20.30;;
14688;SDS011;7432;48.728;9.154;2024-02-28T11:08:11;23.97;;;21.57;;
14688;SDS011;7432;48.728;9.154;2024-02-28T11:10:45;23.27;;;20.77;;
14688;SDS011;7432;48.728;9.154;2024-02-28T11:13:21;24.10;;;21.67;;
14688;SDS011;7432;48.728;9.154;2024-02-28T11:15:48;24.23;;;21.63;;
14688;SDS011;7432;48.728;9.154;2024-02-28T11:18:14;24.40;;;21.53;;
14688;SDS011;7432;48.728;9.154;2024-02-28T11:20:42;24.83;;;20.83;;
14688;SDS011;7432;48.728;9.154;2024-02-28T11:23:11;22.90;;;20.10;;
14688;SDS011;7432;48.728;9.154;2024-02-28T11:25:39;22.80;;;20.40;;
14688;SDS011;7432;48.728;9.154;2024-02-28T11:28:05;22.20;;;19.80;;
14688;SDS011;7432;48.728;9.154;2024-02-28T11:30:34;23.50;;;20.77;;
14688;SDS011;7432;48.728;9.154;2024-02-28T11:33:00;22.57;;;20.37;;
14688;SDS011;7432;48.728;9.154;2024-02-28T11:35:27;22.03;;;19.93;;
14688;SDS011;7432;48.728;9.154;2024-02-28T11:37:54;22.53;;;20.13;;
14688;SDS011;7432;48.728;9.154;2024-02-28T11:40:22;21.93;;;19.50;;
14688;SDS011;7432;48.728;9.154;2024-02-28T11:42:50;22.33;;;20.13;;
14688;SDS011;7432;48.728;9.154;2024-02-28T11:45:16;21.83;;;19.63;;
14688;SDS011;7432;48.728;9.154;2024-02-28T11:47:44;22.37;;;19.43;;
14688;SDS011;7432;48.728;9.154;2024-02-28T11:50:10;21.40;;;19.10;;
14688;SDS011;7432;48.728;9.154;2024-02-28T11:52:37;21.00;;;18.90;;
14688;SDS011;7432;48.728;9.154;2024-02-28T11:55:03;20.13;;;18.13;;
14688;SDS011;7432;48.728;9.154;2024-02-28T11:57:30;21.00;;;18.73;;
14688;SDS011;7432;48.728;9.154;2024-02-28T12:00:01;21.47;;;19.27;;
14688;SDS011;7432;48.728;9.154;2024-02-28T12:02:29;21.30;;;19.10;;
14688;SDS011;7432;48.728;9.154;2024-02-28T12:05:00;20.73;;;18.53;;
14688;SDS011;7432;48.728;9.154;2024-02-28T12:07:27;23.47;;;20.43;;
14688;SDS011;7432;48.728;9.154;2024-02-28T12:09:53;23.20;;;19.57;;
14688;SDS011;7432;48.728;9.154;2024-02-28T12:12:21;23.00;;;20.67;;
14688;SDS011;7432;48.728;9.154;2024-02-28T12:14:47;22.33;;;19.90;;
14688;SDS011;7432;48.728;9.154;2024-02-28T12:17:14;22.23;;;19.43;;
14688;SDS011;7432;48.728;9.154;2024-02-28T12:19:41;23.83;;;20.13;;
14688;SDS011;7432;48.728;9.154;2024-02-28T12:22:09;21.57;;;19.37;;
14688;SDS011;7432;48.728;9.154;2024-02-28T12:24:36;22.13;;;19.83;;
14688;SDS011;7432;48.728;9.154;2024-02-28T12:27:03;21.90;;;19.63;;
14688;SDS011;7432;48.728;9.154;2024-02-28T12:29:29;22.50;;;20.30;;
14688;SDS011;7432;48.728;9.154;2024-02-28T12:31:56;23.10;;;20.77;;
14688;SDS011;7432;48.728;9.154;2024-02-28T12:34:23;21.87;;;19.57;;
14688;SDS011;7432;48.728;9.154;2024-02-28T12:36:49;23.47;;;20.80;;
14688;SDS011;7432;48.728;9.154;2024-02-28T12:39:17;22.37;;;20.07;;
14688;SDS011;7432;48.728;9.154;2024-02-28T12:41:43;23.63;;;20.10;;
14688;SDS011;7432;48.728;9.154;2024-02-28T12:44:09;24.37;;;20.77;;
14688;SDS011;7432;48.728;9.154;2024-02-28T12:46:36;22.73;;;20.43;;
14688;SDS011;7432;48.728;9.154;2024-02-28T12:49:03;22.43;;;19.57;;
14688;SDS011;7432;48.728;9.154;2024-02-28T12:51:35;20.53;;;18.53;;
14688;SDS011;7432;48.728;9.154;2024-02-28T12:54:03;21.10;;;18.90;;
14688;SDS011;7432;48.728;9.154;2024-02-28T12:56:31;24.00;;;21.60;;
14688;SDS011;7432;48.728;9.154;2024-02-28T12:58:58;23.17;;;20.67;;
14688;SDS011;7432;48.728;9.154;2024-02-28T13:01:25;22.73;;;20.33;;
14688;SDS011;7432;48.728;9.154;2024-02-28T13:03:52;22.13;;;19.73;;
14688;SDS011;7432;48.728;9.154;2024-02-28T13:06:19;22.90;;;20.50;;
14688;SDS011;7432;48.728;9.154;2024-02-28T13:08:45;20.70;;;18.70;;
14688;SDS011;7432;48.728;9.154;2024-02-28T13:11:16;21.67;;;19.47;;
14688;SDS011;7432;48.728;9.154;2024-02-28T13:13:45;21.30;;;19.17;;
14688;SDS011;7432;48.728;9.154;2024-02-28T13:16:11;21.40;;;17.93;;
14688;SDS011;7432;48.728;9.154;2024-02-28T13:18:37;22.80;;;20.60;;
14688;SDS011;7432;48.728;9.154;2024-02-28T13:21:04;22.77;;;20.37;;
14688;SDS011;7432;48.728;9.154;2024-02-28T13:23:30;22.53;;;20.30;;
14688;SDS011;7432;48.728;9.154;2024-02-28T13:25:57;21.83;;;19.60;;
14688;SDS011;7432;48.728;9.154;2024-02-28T13:28:23;21.90;;;19.60;;
14688;SDS011;7432;48.728;9.154;2024-02-28T13:30:55;21.83;;;19.63;;
14688;SDS011;7432;48.728;9.154;2024-02-28T13:33:22;21.67;;;19.43;;
14688;SDS011;7432;48.728;9.154;2024-02-28T13:35:48;21.63;;;19.43;;
14688;SDS011;7432;48.728;9.154;2024-02-28T13:38:15;22.77;;;20.33;;
14688;SDS011;7432;48.728;9.154;2024-02-28T13:40:41;38.27;;;28.63;;
14688;SDS011;7432;48.728;9.154;2024-02-28T13:43:09;30.43;;;23.63;;
14688;SDS011;7432;48.728;9.154;2024-02-28T13:45:37;23.17;;;20.60;;
14688;SDS011;7432;48.728;9.154;2024-02-28T13:48:14;22.10;;;19.70;;
14688;SDS011;7432;48.728;9.154;2024-02-28T13:50:42;21.83;;;19.50;;
14688;SDS011;7432;48.728;9.154;2024-02-28T13:53:08;23.17;;;20.67;;
14688;SDS011;7432;48.728;9.154;2024-02-28T13:55:34;21.23;;;19.03;;
14688;SDS011;7432;48.728;9.154;2024-02-28T13:58:01;22.73;;;20.30;;
14688;SDS011;7432;48.728;9.154;2024-02-28T14:00:27;22.63;;;20.23;;
14688;SDS011;7432;48.728;9.154;2024-02-28T14:02:53;20.53;;;18.33;;
14688;SDS011;7432;48.728;9.154;2024-02-28T14:05:21;20.20;;;18.10;;
14688;SDS011;7432;48.728;9.154;2024-02-28T14:07:47;21.77;;;19.47;;
14688;SDS011;7432;48.728;9.154;2024-02-28T14:10:14;23.47;;;21.07;;
14688;SDS011;7432;48.728;9.154;2024-02-28T14:12:41;22.27;;;19.97;;
14688;SDS011;7432;48.728;9.154;2024-02-28T14:15:08;22.97;;;20.67;;
14688;SDS011;7432;48.728;9.154;2024-02-28T14:17:36;25.43;;;21.07;;
14688;SDS011;7432;48.728;9.154;2024-02-28T14:20:03;22.53;;;20.07;;
14688;SDS011;7432;48.728;9.154;2024-02-28T14:22:32;23.67;;;20.70;;
14688;SDS011;7432;48.728;9.154;2024-02-28T14:24:59;22.00;;;19.70;;
14688;SDS011;7432;48.728;9.154;2024-02-28T14:27:25;23.47;;;21.17;;
14688;SDS011;7432;48.728;9.154;2024-02-28T14:29:55;23.20;;;20.73;;
14688;SDS011;7432;48.728;9.154;2024-02-28T14:32:21;23.67;;;21.17;;